Time;durP1;ratioP1;P1;durP2;ratioP2;P2;SDS_P1;SDS_P2;PMS_P1;PMS_P2;Temp;Humidity;BMP_temperature;BMP_pressure;BME280_temperature;BME280_humidity;BME280_pressure;Samples;Min_cycle;Max_cycle;Signal;HPM_P1;HPM_P2
2024/04/13 00:01:21;;;;;;;;;;;;;;;5.00;100.00;100950.00;5344608;26;19930;-88
2024/04/13 00:03:47;;;;;;;;;;;;;;;4.97;100.00;100953.47;5343457;26;19938;-89
2024/04/13 00:06:12;;;;;;;;;;;;;;;4.90;100.00;100952.63;5343716;26;19937;-86
2024/04/13 00:08:40;;;;;;;;;;;;;;;4.94;100.00;100953.50;5344506;26;19977;-85
2024/04/13 00:11:08;;;;;;;;;;;;;;;5.00;100.00;100953.47;5344534;26;19937;-89
2024/04/13 00:13:33;;;;;;;;;;;;;;;4.89;100.00;100947.38;5344640;26;19937;-87
2024/04/13 00:15:58;;;;;;;;;;;;;;;4.96;100.00;100950.84;5343625;26;20302;-87
2024/04/13 00:18:24;;;;;;;;;;;;;;;4.90;100.00;100941.25;5346641;26;19999;-88
2024/04/13 00:20:49;;;;;;;;;;;;;;;4.76;100.00;100940.38;5344618;26;19930;-84
2024/04/13 00:23:14;;;;;;;;;;;;;;;4.75;100.00;100939.50;5345258;26;20013;-87
2024/04/13 00:25:39;;;;;;;;;;;;;;;4.72;100.00;100942.13;5344833;26;19941;-87
2024/04/13 00:28:05;;;;;;;;;;;;;;;4.71;100.00;100943.00;5343946;26;19930;-87
2024/04/13 00:30:31;;;;;;;;;;;;;;;4.66;100.00;100944.75;5342956;26;19930;-87
2024/04/13 00:32:56;;;;;;;;;;;;;;;4.77;100.00;100929.88;5345453;26;19934;-87
2024/04/13 00:35:21;;;;;;;;;;;;;;;4.74;100.00;100932.50;5343138;26;19938;-85
2024/04/13 00:37:46;;;;;;;;;;;;;;;4.67;100.00;100928.13;5343803;26;20082;-86
2024/04/13 05:21:17;;;;;;;;;;;;;;;5.36;100.00;100851.78;5962382;21;19934;-87
2024/04/13 05:23:42;;;;;;;;;;;;;;;5.34;100.00;100868.44;5363013;26;19950;-86
2024/04/13 05:26:07;;;;;;;;;;;;;;;5.32;100.00;100867.56;5334457;26;19929;-86
2024/04/13 05:28:33;;;;;;;;;;;;;;;5.36;100.00;100866.66;5365560;26;19941;-85
2024/04/13 05:31:00;;;;;;;;;;;;;;;5.27;100.00;100871.09;5365459;26;19945;-86
2024/04/13 05:33:26;;;;;;;;;;;;;;;5.34;100.00;100877.19;5361921;26;19936;-86
2024/04/13 05:35:52;;;;;;;;;;;;;;;5.30;100.00;100874.56;5331433;26;19931;-86
2024/04/13 05:38:18;;;;;;;;;;;;;;;5.28;100.00;100877.19;5334879;26;19929;-86
2024/04/13 05:40:43;;;;;;;;;;;;;;;5.29;100.00;100876.34;5334406;26;19938;-87
2024/04/13 05:43:08;;;;;;;;;;;;;;;5.25;100.00;100879.88;5364695;26;19941;-87
2024/04/13 05:45:37;;;;;;;;;;;;;;;5.22;100.00;100880.75;5365252;26;19937;-85
2024/04/13 05:48:03;;;;;;;;;;;;;;;5.19;100.00;100879.88;5364110;26;20398;-86
2024/04/13 05:50:28;;;;;;;;;;;;;;;5.20;100.00;100882.50;5332344;26;19938;-86
2024/04/13 05:52:54;;;;;;;;;;;;;;;5.21;100.00;100884.25;5365195;26;19929;-87
2024/04/13 05:55:19;;;;;;;;;;;;;;;5.16;100.00;100891.28;5334731;26;19942;-87
2024/04/13 05:57:44;;;;;;;;;;;;;;;5.16;100.00;100891.28;5364657;26;19930;-87
2024/04/13 06:00:10;;;;;;;;;;;;;;;5.17;100.00;100892.13;5334136;26;20266;-87
2024/04/13 06:02:35;;;;;;;;;;;;;;;5.16;100.00;100893.91;5365519;26;20253;-86
2024/04/13 06:05:00;;;;;;;;;;;;;;;5.12;100.00;100888.66;5363954;26;20330;-86
2024/04/13 06:07:26;;;;;;;;;;;;;;;5.12;100.00;100894.78;5333082;26;19942;-86
2024/04/13 06:09:51;;;;;;;;;;;;;;;5.13;100.00;100893.91;5364421;26;19970;-86
2024/04/13 06:12:16;;;;;;;;;;;;;;;5.16;100.00;100891.28;5365051;26;20373;-86
2024/04/13 06:14:41;;;;;;;;;;;;;;;5.15;100.00;100883.38;5332263;26;20320;-87
2024/04/13 06:17:07;;;;;;;;;;;;;;;5.12;100.00;100881.63;5365323;26;19936;-85
2024/04/13 06:19:32;;;;;;;;;;;;;;;5.04;100.00;100891.28;5333981;26;19936;-86
2024/04/13 06:21:57;;;;;;;;;;;;;;;5.06;100.00;100892.19;5362549;26;19930;-87
2024/04/13 06:24:23;;;;;;;;;;;;;;;5.07;100.00;100889.56;5364405;26;20003;-86
2024/04/13 06:26:49;;;;;;;;;;;;;;;5.07;100.00;100897.44;5363929;26;19930;-85
2024/04/13 06:29:14;;;;;;;;;;;;;;;5.08;100.00;100893.06;5364472;26;19929;-88
2024/04/13 06:31:39;;;;;;;;;;;;;;;5.07;100.00;100899.16;5365095;26;19932;-87
2024/04/13 06:34:04;;;;;;;;;;;;;;;5.07;100.00;100892.19;5364352;26;19930;-87
2024/04/13 06:36:30;;;;;;;;;;;;;;;5.07;100.00;100900.06;5360954;26;20003;-87
2024/04/13 06:38:55;;;;;;;;;;;;;;;5.09;100.00;100900.94;5333395;26;19930;-87
2024/04/13 06:41:20;;;;;;;;;;;;;;;5.08;100.00;100893.06;5365212;26;19937;-86
2024/04/13 06:43:45;;;;;;;;;;;;;;;5.06;100.00;100895.69;5364255;26;19966;-86
2024/04/13 06:46:11;;;;;;;;;;;;;;;5.07;100.00;100901.78;5363889;26;19929;-88
2024/04/13 06:48:36;;;;;;;;;;;;;;;5.13;100.00;100896.53;5363847;26;19980;-88
2024/04/13 06:51:02;;;;;;;;;;;;;;;5.06;100.00;100900.06;5363426;26;19930;-88
2024/04/13 06:53:27;;;;;;;;;;;;;;;5.13;100.00;100900.91;5364315;26;19937;-89
2024/04/13 06:55:52;;;;;;;;;;;;;;;5.06;100.00;100902.69;5333825;26;20483;-89
2024/04/13 06:58:23;;;;;;;;;;;;;;;5.10;100.00;100901.78;5364258;26;19929;-89
2024/04/13 07:00:55;;;;;;;;;;;;;;;5.11;100.00;100895.66;5361499;26;19936;-86
2024/04/13 07:03:21;;;;;;;;;;;;;;;5.05;100.00;100896.53;5351182;26;20021;-87
2024/04/13 07:05:46;;;;;;;;;;;;;;;5.09;100.00;100897.44;5331805;26;19944;-86
2024/04/13 07:08:11;;;;;;;;;;;;;;;5.04;100.00;100894.81;5363412;26;19930;-89
2024/04/13 07:10:37;;;;;;;;;;;;;;;4.98;100.00;100896.56;5363520;26;19930;-89
2024/04/13 07:13:02;;;;;;;;;;;;;;;5.05;100.00;100895.69;5364873;26;19933;-89
2024/04/13 07:15:27;;;;;;;;;;;;;;;5.05;100.00;100887.81;5333306;26;19929;-89
2024/04/13 07:17:52;;;;;;;;;;;;;;;5.04;100.00;100891.28;5333620;26;19941;-89
2024/04/13 07:20:19;;;;;;;;;;;;;;;5.03;100.00;100881.69;5362550;26;19934;-89
2024/04/13 07:22:44;;;;;;;;;;;;;;;5.06;100.00;100894.81;5332599;26;19930;-89
2024/04/13 07:25:09;;;;;;;;;;;;;;;5.04;100.00;100884.31;5361732;26;19969;-87
2024/04/13 07:27:34;;;;;;;;;;;;;;;5.07;100.00;100880.78;5363258;26;19936;-88
2024/04/13 07:30:00;;;;;;;;;;;;;;;5.07;100.00;100880.78;5330391;26;19930;-89
2024/04/13 07:37:28;;;;;;;;;;;;;;;5.02;100.00;100869.41;5289816;26;19993;-87
2024/04/13 07:39:54;;;;;;;;;;;;;;;5.07;100.00;100865.91;5297343;26;20260;-90
2024/04/13 07:42:20;;;;;;;;;;;;;;;5.07;100.00;100865.03;5298430;26;19930;-88
2024/04/13 07:44:45;;;;;;;;;;;;;;;5.04;100.00;100859.78;5295158;26;20447;-87
2024/04/13 07:47:10;;;;;;;;;;;;;;;5.01;100.00;100849.28;5297863;26;19937;-86
2024/04/13 07:49:36;;;;;;;;;;;;;;;5.02;100.00;100851.88;5328208;26;19937;-87
2024/04/13 07:52:01;;;;;;;;;;;;;;;5.03;100.00;100848.41;5296995;26;19929;-87
2024/04/13 07:54:27;;;;;;;;;;;;;;;5.04;100.00;100850.16;5329200;26;19930;-87
2024/04/13 07:56:52;;;;;;;;;;;;;;;5.09;100.00;100842.25;5328810;26;19931;-88
2024/04/13 07:59:18;;;;;;;;;;;;;;;5.13;100.00;100846.59;5328416;26;20277;-87
2024/04/13 08:01:43;;;;;;;;;;;;;;;5.07;100.00;100838.75;5328916;26;19930;-87
2024/04/13 08:04:08;;;;;;;;;;;;;;;5.04;100.00;100844.91;5298508;26;19930;-87
2024/04/13 08:09:41;;;;;;;;;;;;;;;5.04;100.00;100838.75;5328672;26;19999;-86
2024/04/13 08:12:07;;;;;;;;;;;;;;;5.08;100.00;100836.13;5297354;26;20266;-87
2024/04/13 08:14:32;;;;;;;;;;;;;;;5.08;100.00;100837.88;5328098;26;19938;-87
2024/04/13 08:16:57;;;;;;;;;;;;;;;5.04;100.00;100833.50;5297657;26;20361;-86
2024/04/13 08:19:24;;;;;;;;;;;;;;;5.07;100.00;100844.00;5327877;26;21397;-87
2024/04/13 08:21:51;;;;;;;;;;;;;;;5.04;100.00;100836.13;5326957;26;19938;-87
2024/04/13 08:24:16;;;;;;;;;;;;;;;5.09;100.00;100837.00;5327851;26;20001;-89
2024/04/13 08:26:41;;;;;;;;;;;;;;;5.07;100.00;100837.00;5327743;26;19930;-88
2024/04/13 08:29:07;;;;;;;;;;;;;;;5.08;100.00;100830.00;5311499;26;19938;-86
2024/04/13 08:31:35;;;;;;;;;;;;;;;5.07;100.00;100834.38;5297424;26;19937;-86
2024/04/13 08:34:00;;;;;;;;;;;;;;;5.05;100.00;100832.63;5328530;26;20539;-86
2024/04/13 08:36:25;;;;;;;;;;;;;;;5.07;100.00;100836.13;5326635;26;19930;-87
2024/04/13 08:38:51;;;;;;;;;;;;;;;5.07;100.00;100834.38;5297773;26;19934;-86
2024/04/13 08:41:28;;;;;;;;;;;;;;;5.08;100.00;100835.25;5327808;26;19931;-86
2024/04/13 08:43:53;;;;;;;;;;;;;;;5.12;100.00;100830.84;5325763;26;19937;-86
2024/04/13 08:46:19;;;;;;;;;;;;;;;5.13;100.00;100825.59;5298096;26;19966;-87
2024/04/13 08:48:46;;;;;;;;;;;;;;;5.13;100.00;100830.84;5327532;26;19941;-86
2024/04/13 08:51:12;;;;;;;;;;;;;;;5.17;100.00;100824.72;5325911;26;19938;-87
2024/04/13 08:53:39;;;;;;;;;;;;;;;5.15;100.00;100818.56;5328004;26;20354;-86
2024/04/13 08:56:04;;;;;;;;;;;;;;;5.11;100.00;100823.88;5296651;26;19930;-82
2024/04/13 08:58:31;;;;;;;;;;;;;;;5.17;100.00;100821.19;5328847;26;19937;-83
2024/04/13 09:00:59;;;;;;;;;;;;;;;5.16;100.00;100815.06;5330884;26;19931;-84
2024/04/13 09:03:25;;;;;;;;;;;;;;;5.19;100.00;100812.44;5300195;26;19938;-83
2024/04/13 09:05:51;;;;;;;;;;;;;;;5.18;100.00;100813.31;5341096;26;20351;-82
2024/04/13 09:08:17;;;;;;;;;;;;;;;5.18;100.00;100813.31;5300488;26;19937;-85
2024/04/13 09:10:43;;;;;;;;;;;;;;;5.16;100.00;100811.59;5329767;26;20262;-85
2024/04/13 09:13:08;;;;;;;;;;;;;;;5.11;100.00;100811.59;5330933;26;19936;-83
2024/04/13 09:15:34;;;;;;;;;;;;;;;5.18;100.00;100810.66;5300677;26;19977;-85
2024/04/13 09:18:00;;;;;;;;;;;;;;;5.18;100.00;100812.44;5300050;26;19943;-84
2024/04/13 09:20:26;;;;;;;;;;;;;;;5.19;100.00;100812.44;5328537;26;20277;-83
2024/04/13 09:22:53;;;;;;;;;;;;;;;5.21;100.00;100815.91;5329928;26;19930;-84
2024/04/13 09:25:19;;;;;;;;;;;;;;;5.20;100.00;100803.69;5330613;26;20350;-82
2024/04/13 09:27:44;;;;;;;;;;;;;;;5.24;100.00;100805.41;5330547;26;19935;-84
2024/04/13 09:30:10;;;;;;;;;;;;;;;5.25;100.00;100801.91;5330844;26;19999;-84
2024/04/13 09:32:35;;;;;;;;;;;;;;;5.19;100.00;100796.66;5300474;26;20300;-84
2024/04/13 09:35:07;;;;;;;;;;;;;;;5.22;100.00;100791.41;5298025;26;20001;-83
2024/04/13 09:37:33;;;;;;;;;;;;;;;5.22;100.00;100783.50;5298955;26;19972;-84
2024/04/13 09:40:02;;;;;;;;;;;;;;;5.16;100.00;100791.41;5299879;26;19934;-85
2024/04/13 09:42:27;;;;;;;;;;;;;;;5.20;100.00;100793.16;5330800;26;19930;-86
2024/04/13 09:44:52;;;;;;;;;;;;;;;5.22;100.00;100793.16;5299494;26;19962;-85
2024/04/13 09:47:17;;;;;;;;;;;;;;;5.17;100.00;100790.56;5330097;26;19938;-84
2024/04/13 09:49:48;;;;;;;;;;;;;;;5.16;100.00;100780.91;5300450;26;20000;-84
2024/04/13 09:52:13;;;;;;;;;;;;;;;5.19;100.00;100769.53;5328507;26;19931;-86
2024/04/13 09:54:41;;;;;;;;;;;;;;;5.25;100.00;100773.00;5329926;26;20000;-87
2024/04/13 09:57:07;;;;;;;;;;;;;;;5.22;100.00;100773.00;5330091;26;19941;-85
2024/04/13 09:59:33;;;;;;;;;;;;;;;5.23;100.00;100765.97;5330553;26;19930;-84
2024/04/13 10:01:58;;;;;;;;;;;;;;;5.27;100.00;100768.59;5299936;26;19937;-85
2024/04/13 10:04:23;;;;;;;;;;;;;;;5.30;100.00;100761.56;5299282;26;19931;-88
2024/04/13 10:06:50;;;;;;;;;;;;;;;5.24;100.00;100765.13;5297920;26;19969;-89
2024/04/13 10:09:18;;;;;;;;;;;;;;;5.30;100.00;100761.56;5329658;26;19938;-88
2024/04/13 10:12:20;;;;;;;;;;;;;;;5.30;100.00;100756.31;5335078;26;20373;-89
2024/04/13 10:14:47;;;;;;;;;;;;;;;5.32;100.00;100755.44;5339396;21;20246;-85
2024/04/13 10:17:13;;;;;;;;;;;;;;;5.32;100.00;100754.56;5328864;26;19934;-88
2024/04/13 10:19:42;;;;;;;;;;;;;;;5.32;100.00;100758.06;5299823;26;20000;-87
2024/04/13 10:22:08;;;;;;;;;;;;;;;5.35;100.00;100755.41;5327780;26;19937;-87
2024/04/13 10:24:43;;;;;;;;;;;;;;;5.35;100.00;100749.28;5331933;26;19930;-89
2024/04/13 10:27:09;;;;;;;;;;;;;;;5.33;100.00;100743.16;5329269;26;20666;-89
2024/04/13 10:29:40;;;;;;;;;;;;;;;5.33;100.00;100737.88;5330232;26;19930;-90
2024/04/13 10:32:16;;;;;;;;;;;;;;;5.32;100.00;100737.03;5329567;26;20001;-90
2024/04/13 10:34:41;;;;;;;;;;;;;;;5.34;100.00;100737.88;5329562;26;19931;-88
2024/04/13 10:37:22;;;;;;;;;;;;;;;5.37;100.00;100737.88;5327773;26;19937;-88
2024/04/13 10:39:55;;;;;;;;;;;;;;;5.36;100.00;100738.78;5329133;26;19969;-90
2024/04/13 10:42:20;;;;;;;;;;;;;;;5.28;100.00;100733.56;5329531;26;19966;-88
2024/04/13 10:44:46;;;;;;;;;;;;;;;5.36;100.00;100732.63;5329684;26;19930;-85
2024/04/13 10:47:11;;;;;;;;;;;;;;;5.42;100.00;100716.81;5329747;26;19937;-88
2024/04/13 10:49:37;;;;;;;;;;;;;;;5.39;100.00;100712.47;5329213;26;19930;-89
2024/04/13 10:52:02;;;;;;;;;;;;;;;5.39;100.00;100712.47;5297227;26;19931;-90
2024/04/13 10:54:27;;;;;;;;;;;;;;;5.37;100.00;100710.72;5330128;26;20361;-89
2024/04/13 10:56:55;;;;;;;;;;;;;;;5.33;100.00;100703.72;5329855;26;19937;-89
2024/04/13 10:59:23;;;;;;;;;;;;;;;5.38;100.00;100691.44;5328935;26;19936;-89
2024/04/13 11:01:48;;;;;;;;;;;;;;;5.41;100.00;100694.06;5330109;26;19937;-89
2024/04/13 11:04:14;;;;;;;;;;;;;;;5.41;100.00;100687.03;5329403;26;19931;-89
2024/04/13 11:06:39;;;;;;;;;;;;;;;5.37;100.00;100689.69;5296880;26;20003;-89
2024/04/13 11:09:05;;;;;;;;;;;;;;;5.38;100.00;100688.81;5297575;26;19930;-88
2024/04/13 11:11:30;;;;;;;;;;;;;;;5.40;100.00;100681.78;5329957;26;20001;-88
2024/04/13 11:13:56;;;;;;;;;;;;;;;5.42;100.00;100675.63;5329089;26;19946;-87
2024/04/13 11:19:32;;;;;;;;;;;;;;;5.37;100.00;100673.94;5275206;26;19937;-88
2024/04/13 11:21:59;;;;;;;;;;;;;;;5.38;100.00;100666.03;5326861;26;19946;-87
2024/04/13 11:24:25;;;;;;;;;;;;;;;5.50;100.00;100662.41;5328852;26;19930;-87
2024/04/13 11:26:50;;;;;;;;;;;;;;;5.40;100.00;100663.38;5328879;26;19937;-86
2024/04/13 11:29:15;;;;;;;;;;;;;;;5.38;100.00;100658.16;5329583;26;19931;-88
2024/04/13 11:31:41;;;;;;;;;;;;;;;5.47;100.00;100646.66;5328000;26;20362;-87
2024/04/13 11:34:06;;;;;;;;;;;;;;;5.40;100.00;100648.47;5329091;26;19930;-88
2024/04/13 11:36:31;;;;;;;;;;;;;;;5.43;100.00;100648.47;5328051;26;19930;-88
2024/04/13 11:42:00;;;;;;;;;;;;;;;5.39;100.00;100636.25;5352211;21;19926;-87
2024/04/13 11:47:00;;;;;;;;;;;;;;;5.42;100.00;100637.97;5352503;21;19938;-87
2024/04/13 11:49:26;;;;;;;;;;;;;;;5.42;100.00;100628.31;5315430;26;20733;-85
2024/04/13 11:51:51;;;;;;;;;;;;;;;5.47;100.00;100633.53;5313961;26;19930;-87
2024/04/13 11:54:17;;;;;;;;;;;;;;;5.49;100.00;100625.63;5346090;26;20695;-88
2024/04/13 11:56:45;;;;;;;;;;;;;;;5.52;100.00;100626.50;5346054;26;20272;-88
2024/04/13 11:59:14;;;;;;;;;;;;;;;5.45;100.00;100615.13;5315305;26;19934;-88
2024/04/13 12:01:39;;;;;;;;;;;;;;;5.44;100.00;100607.25;5345725;26;19930;-89
2024/04/13 12:04:05;;;;;;;;;;;;;;;5.44;100.00;100607.25;5345802;26;19931;-87
2024/04/13 12:06:30;;;;;;;;;;;;;;;5.46;100.00;100605.50;5313742;26;19938;-87
2024/04/13 12:08:55;;;;;;;;;;;;;;;5.46;100.00;100595.00;5321662;21;19941;-88
2024/04/13 12:11:20;;;;;;;;;;;;;;;5.44;100.00;100587.13;5314889;26;19937;-88
2024/04/13 12:13:46;;;;;;;;;;;;;;;5.49;100.00;100592.34;5315025;26;19966;-87
2024/04/13 12:16:11;;;;;;;;;;;;;;;5.52;100.00;100583.53;5345815;26;20008;-88
2024/04/13 12:18:36;;;;;;;;;;;;;;;5.51;100.00;100572.16;5315295;26;19936;-88
2024/04/13 12:21:02;;;;;;;;;;;;;;;5.52;100.00;100578.28;5343543;26;20004;-93
2024/04/13 12:23:27;;;;;;;;;;;;;;;5.50;100.00;100569.56;5345625;26;19936;-89
2024/04/13 12:25:53;;;;;;;;;;;;;;;5.54;100.00;100572.13;5344805;26;19937;-86
2024/04/13 12:28:18;;;;;;;;;;;;;;;5.60;100.00;100566.81;5345588;26;19937;-87
2024/04/13 12:30:44;;;;;;;;;;;;;;;5.59;100.00;100557.19;5345845;26;19937;-88
2024/04/13 12:33:10;;;;;;;;;;;;;;;5.53;100.00;100557.25;5313252;26;21812;-88
2024/04/13 12:35:35;;;;;;;;;;;;;;;5.59;100.00;100551.06;5343819;26;19930;-90
2024/04/13 12:38:00;;;;;;;;;;;;;;;5.59;100.00;100546.66;5345432;26;19930;-89
2024/04/13 12:40:26;;;;;;;;;;;;;;;5.54;100.00;100545.84;5342087;26;19937;-90
2024/04/13 12:42:51;;;;;;;;;;;;;;;5.58;100.00;100547.53;5345235;26;20266;-90
2024/04/13 12:45:16;;;;;;;;;;;;;;;5.55;100.00;100544.09;5343641;26;19938;-89
2024/04/13 12:47:42;;;;;;;;;;;;;;;5.60;100.00;100539.63;5345127;26;19937;-90
2024/04/13 12:50:08;;;;;;;;;;;;;;;5.61;100.00;100534.38;5342489;26;20014;-88
2024/04/13 12:52:33;;;;;;;;;;;;;;;5.63;100.00;100524.72;5314706;26;20386;-86
2024/04/13 12:54:59;;;;;;;;;;;;;;;5.55;100.00;100520.41;5314502;26;20365;-91
2024/04/13 12:57:26;;;;;;;;;;;;;;;5.56;100.00;100516.91;5372252;26;19981;-88
2024/04/13 12:59:51;;;;;;;;;;;;;;;5.57;100.00;100514.28;5345138;26;19957;-90
2024/04/13 13:02:17;;;;;;;;;;;;;;;5.56;100.00;100502.00;5344900;26;19934;-88
2024/04/13 13:04:43;;;;;;;;;;;;;;;5.63;100.00;100508.06;5344875;26;19930;-90
2024/04/13 13:07:09;;;;;;;;;;;;;;;5.56;100.00;100503.78;5343319;26;20282;-89
2024/04/13 13:09:34;;;;;;;;;;;;;;;5.58;100.00;100508.09;5344627;26;20002;-87
2024/04/13 13:12:03;;;;;;;;;;;;;;;5.61;100.00;100509.84;5344965;26;19984;-92
2024/04/13 13:14:28;;;;;;;;;;;;;;;5.65;100.00;100495.78;5344848;26;19930;-88
2024/04/13 13:16:54;;;;;;;;;;;;;;;5.58;100.00;100502.84;5314534;26;19930;-87
2024/04/13 13:19:19;;;;;;;;;;;;;;;5.58;100.00;100494.97;5344818;26;19937;-87
2024/04/13 13:21:44;;;;;;;;;;;;;;;5.57;100.00;100487.13;5343045;26;19942;-87
2024/04/13 13:24:10;;;;;;;;;;;;;;;5.58;100.00;100483.59;5344456;26;19930;-87
2024/04/13 13:26:35;;;;;;;;;;;;;;;5.57;100.00;100482.72;5344716;26;20238;-89
2024/04/13 13:29:02;;;;;;;;;;;;;;;5.64;100.00;100475.63;5313951;26;19937;-89
2024/04/13 13:31:28;;;;;;;;;;;;;;;5.56;100.00;100480.13;5313963;26;19930;-91
2024/04/13 13:33:53;;;;;;;;;;;;;;;5.55;100.00;100479.25;5344101;26;20004;-90
2024/04/13 13:36:18;;;;;;;;;;;;;;;5.57;100.00;100464.31;5312362;26;20269;-90
2024/04/13 13:38:43;;;;;;;;;;;;;;;5.61;100.00;100466.00;5313768;26;19959;-91
2024/04/13 13:41:09;;;;;;;;;;;;;;;5.64;100.00;100459.84;5343999;26;19962;-90
2024/04/13 13:43:35;;;;;;;;;;;;;;;5.66;100.00;100457.22;5344273;26;19930;-89
2024/04/13 13:46:00;;;;;;;;;;;;;;;5.55;100.00;100452.97;5347003;26;19930;-85
2024/04/13 13:48:25;;;;;;;;;;;;;;;5.53;100.00;100446.81;5316981;26;20356;-87
2024/04/13 13:50:50;;;;;;;;;;;;;;;5.60;100.00;100440.63;5315826;26;19942;-84
2024/04/13 13:53:16;;;;;;;;;;;;;;;5.59;100.00;100445.91;5347527;26;19938;-86
2024/04/13 13:55:44;;;;;;;;;;;;;;;5.67;100.00;100435.28;5317045;26;19937;-89
2024/04/13 13:58:09;;;;;;;;;;;;;;;5.55;100.00;100436.28;5347609;26;20268;-87
2024/04/13 14:00:41;;;;;;;;;;;;;;;5.66;100.00;100428.28;5347590;26;19937;-86
2024/04/13 14:03:09;;;;;;;;;;;;;;;5.63;100.00;100424.81;5347059;26;20271;-87
2024/04/13 14:05:34;;;;;;;;;;;;;;;5.59;100.00;100416.97;5372446;26;19942;-87
2024/04/13 14:07:59;;;;;;;;;;;;;;;5.67;100.00;100407.22;5347232;26;20353;-87
2024/04/13 14:10:25;;;;;;;;;;;;;;;5.60;100.00;100403.81;5347311;26;20374;-90
2024/04/13 14:12:50;;;;;;;;;;;;;;;5.59;100.00;100398.56;5347678;26;19930;-86
2024/04/13 14:15:15;;;;;;;;;;;;;;;7.97;100.00;100408.53;5347165;26;20376;-84
2024/04/13 14:17:42;;;;;;;;;;;;;;;6.21;100.00;100401.25;5316938;26;20254;-83
2024/04/13 14:20:07;;;;;;;;;;;;;;;5.92;100.00;100399.91;5346699;26;20297;-90
2024/04/13 14:22:33;;;;;;;;;;;;;;;5.76;100.00;100407.13;5345117;26;19930;-84
2024/04/13 14:24:58;;;;;;;;;;;;;;;5.77;100.00;100405.34;5316484;26;19936;-84
2024/04/13 14:27:23;;;;;;;;;;;;;;;5.79;100.00;100398.31;5347250;26;19937;-83
2024/04/13 14:29:49;;;;;;;;;;;;;;;5.74;100.00;100400.13;5347172;26;19930;-84
2024/04/13 14:32:14;;;;;;;;;;;;;;;5.74;100.00;100385.22;5345484;26;19934;-85
2024/04/13 14:34:39;;;;;;;;;;;;;;;5.74;100.00;100389.63;5316396;26;20380;-84
2024/04/13 14:37:04;;;;;;;;;;;;;;;5.72;100.00;100391.41;5345456;26;20270;-91
2024/04/13 14:39:30;;;;;;;;;;;;;;;5.79;100.00;100387.78;5347739;26;19934;-85
2024/04/13 14:41:55;;;;;;;;;;;;;;;5.74;100.00;100385.22;5347250;26;20380;-85
2024/04/13 14:44:20;;;;;;;;;;;;;;;5.76;100.00;100382.56;5346884;26;20270;-85
2024/04/13 14:46:47;;;;;;;;;;;;;;;5.75;100.00;100373.81;5316355;26;19929;-85
2024/04/13 14:49:12;;;;;;;;;;;;;;;5.79;100.00;100377.25;5346651;26;20372;-85
2024/04/13 14:51:37;;;;;;;;;;;;;;;5.73;100.00;100372.13;5314850;26;19930;-85
2024/04/13 14:54:02;;;;;;;;;;;;;;;5.73;100.00;100367.72;5316020;26;19930;-85
2024/04/13 14:56:28;;;;;;;;;;;;;;;5.71;100.00;100380.03;5345718;26;19947;-84
2024/04/13 14:58:55;;;;;;;;;;;;;;;5.74;100.00;100365.94;5315713;26;19930;-85
2024/04/13 15:01:21;;;;;;;;;;;;;;;11.89;100.00;100356.94;5316129;26;19930;-88
2024/04/13 15:03:47;;;;;;;;;;;;;;;7.18;100.00;100356.53;5346717;26;20061;-85
2024/04/13 15:06:12;;;;;;;;;;;;;;;6.36;100.00;100361.50;5344975;26;19938;-87
2024/04/13 15:08:37;;;;;;;;;;;;;;;6.07;100.00;100361.13;5346367;26;19930;-86
2024/04/13 15:11:02;;;;;;;;;;;;;;;6.05;100.00;100347.09;5316014;26;19962;-86
2024/04/13 15:13:28;;;;;;;;;;;;;;;6.06;100.00;100344.44;5346472;26;20002;-86
2024/04/13 15:15:53;;;;;;;;;;;;;;;5.98;100.00;100333.19;5346530;26;20446;-86
2024/04/13 15:18:19;;;;;;;;;;;;;;;5.91;100.00;100327.13;5346418;26;19930;-84
2024/04/13 15:20:45;;;;;;;;;;;;;;;5.95;100.00;100328.81;5314512;26;19929;-86
2024/04/13 15:23:10;;;;;;;;;;;;;;;5.93;100.00;100325.31;5315709;26;19930;-86
2024/04/13 15:25:36;;;;;;;;;;;;;;;5.88;100.00;100321.91;5347473;26;19930;-88
2024/04/13 15:28:01;;;;;;;;;;;;;;;5.92;100.00;100326.25;5315979;26;19937;-90
2024/04/13 15:30:27;;;;;;;;;;;;;;;5.93;100.00;100322.69;5348178;26;20004;-85
2024/04/13 15:32:52;;;;;;;;;;;;;;;5.87;100.00;100314.94;5346528;26;19937;-84
2024/04/13 15:35:17;;;;;;;;;;;;;;;5.95;100.00;100310.41;5344808;26;19937;-90
2024/04/13 15:37:43;;;;;;;;;;;;;;;5.92;100.00;100307.81;5346181;26;19930;-84
2024/04/13 15:40:08;;;;;;;;;;;;;;;5.90;100.00;100303.47;5346098;26;20285;-88
2024/04/13 15:42:34;;;;;;;;;;;;;;;5.91;100.00;100299.97;5315760;26;19937;-83
2024/04/13 15:45:02;;;;;;;;;;;;;;;5.86;100.00;100292.13;5315818;26;19930;-84
2024/04/13 15:47:28;;;;;;;;;;;;;;;5.91;100.00;100292.94;5315385;26;19930;-87
2024/04/13 15:49:56;;;;;;;;;;;;;;;5.87;100.00;100288.63;5346139;26;19937;-84
2024/04/13 15:52:45;;;;;;;;;;;;;;;5.88;100.00;100285.09;5343275;26;19930;-92
2024/04/13 15:55:11;;;;;;;;;;;;;;;5.81;100.00;100286.09;5343765;26;19934;-87
2024/04/13 15:57:37;;;;;;;;;;;;;;;5.84;100.00;100283.41;5345898;26;19930;-87
2024/04/13 16:00:02;;;;;;;;;;;;;;;5.86;100.00;100280.75;5345864;26;19936;-87
2024/04/13 16:02:27;;;;;;;;;;;;;;;5.86;100.00;100279.00;5345636;26;19937;-83
2024/04/13 16:04:54;;;;;;;;;;;;;;;5.84;100.00;100278.16;5345664;26;20603;-87
2024/04/13 16:07:20;;;;;;;;;;;;;;;5.85;100.00;100277.25;5343658;26;20003;-86
2024/04/13 16:09:45;;;;;;;;;;;;;;;5.89;100.00;100272.78;5314845;26;19946;-86
2024/04/13 16:15:13;;;;;;;;;;;;;;;5.89;100.00;100268.41;5345521;26;19985;-86
2024/04/13 16:17:39;;;;;;;;;;;;;;;5.85;100.00;100260.59;5345598;26;19938;-86
2024/04/13 16:20:05;;;;;;;;;;;;;;;5.89;100.00;100259.63;5345636;26;19934;-85
2024/04/13 16:22:31;;;;;;;;;;;;;;;5.92;100.00;100252.59;5344469;26;19930;-85
2024/04/13 16:24:56;;;;;;;;;;;;;;;5.91;100.00;100252.63;5345497;26;19930;-85
2024/04/13 16:27:21;;;;;;;;;;;;;;;5.88;100.00;100245.63;5345697;26;19999;-86
2024/04/13 16:29:47;;;;;;;;;;;;;;;5.90;100.00;100251.72;5373701;26;19979;-86
2024/04/13 16:32:12;;;;;;;;;;;;;;;5.90;100.00;100248.25;5344987;26;19942;-86
2024/04/13 16:34:37;;;;;;;;;;;;;;;5.91;100.00;100248.22;5314659;26;19937;-86
2024/04/13 16:37:03;;;;;;;;;;;;;;;5.90;100.00;100242.97;5343963;26;19930;-90
2024/04/13 16:39:28;;;;;;;;;;;;;;;5.90;100.00;100237.72;5345113;26;19969;-83
2024/04/13 16:41:53;;;;;;;;;;;;;;;5.99;100.00;100235.81;5345321;26;19957;-87
2024/04/13 16:44:20;;;;;;;;;;;;;;;5.98;100.00;100242.00;5372979;26;19938;-87
2024/04/13 16:46:45;;;;;;;;;;;;;;;5.92;100.00;100242.06;5344913;26;19938;-82
2024/04/13 16:49:10;;;;;;;;;;;;;;;5.96;100.00;100233.25;5344981;26;19930;-83
2024/04/13 16:54:17;;;;;;;;;;;;;;;5.91;100.00;100223.69;5461063;21;20443;-81
2024/04/13 16:56:42;;;;;;;;;;;;;;;6.35;100.00;100220.28;5331406;26;19930;-84
2024/04/13 16:59:08;;;;;;;;;;;;;;;6.21;100.00;100224.94;5362525;26;19942;-85
2024/04/13 17:01:33;;;;;;;;;;;;;;;6.20;100.00;100219.72;5331933;26;19933;-84
2024/04/13 17:03:58;;;;;;;;;;;;;;;6.18;100.00;100223.22;5362810;26;19936;-84
2024/04/13 17:06:24;;;;;;;;;;;;;;;6.14;100.00;100220.66;5360467;26;19980;-83
2024/04/13 17:08:49;;;;;;;;;;;;;;;6.11;100.00;100212.81;5362054;26;19936;-83
2024/04/13 17:11:14;;;;;;;;;;;;;;;6.11;100.00;100211.09;5362057;26;19999;-84
2024/04/13 17:13:40;;;;;;;;;;;;;;;6.12;100.00;100212.81;5331829;26;19938;-85
2024/04/13 17:16:06;;;;;;;;;;;;;;;6.14;100.00;100212.78;5330875;26;19930;-85
2024/04/13 17:18:31;;;;;;;;;;;;;;;6.07;100.00;100208.53;5331644;26;19930;-84
2024/04/13 17:20:57;;;;;;;;;;;;;;;6.07;100.00;100198.00;5331763;26;20489;-84
2024/04/13 17:23:22;;;;;;;;;;;;;;;6.01;100.00;100206.88;5357435;26;20004;-84
2024/04/13 17:25:51;;;;;;;;;;;;;;;6.02;100.00;100205.97;5364820;26;19940;-83
2024/04/13 17:28:17;;;;;;;;;;;;;;;6.05;100.00;100192.78;5348299;26;19941;-84
2024/04/13 17:30:46;;;;;;;;;;;;;;;6.08;100.00;100191.84;5334408;26;19961;-87
2024/04/13 17:35:45;;;;;;;;;;;;;;;6.00;100.00;100184.97;5352422;21;19934;-83